sensor_id;sensor_type;location;lat;lon;timestamp;P1;durP1;ratioP1;P2;durP2;ratioP2
12968;SDS011;6549;53.128;8.182;2022-12-18T00:00:57;94.15;;;28.55;;
12968;SDS011;6549;53.128;8.182;2022-12-18T00:03:58;84.88;;;27.08;;
12968;SDS011;6549;53.128;8.182;2022-12-18T00:07:00;100.57;;;29.73;;
12968;SDS011;6549;53.128;8.182;2022-12-18T00:10:00;98.80;;;32.17;;
12968;SDS011;6549;53.128;8.182;2022-12-18T00:13:00;97.07;;;29.73;;
12968;SDS011;6549;53.128;8.182;2022-12-18T00:16:04;91.20;;;29.30;;
12968;SDS011;6549;53.128;8.182;2022-12-18T00:19:10;103.60;;;29.65;;
12968;SDS011;6549;53.128;8.182;2022-12-18T00:22:11;96.70;;;29.52;;
12968;SDS011;6549;53.128;8.182;2022-12-18T00:25:11;90.65;;;29.00;;
12968;SDS011;6549;53.128;8.182;2022-12-18T00:28:12;93.07;;;28.38;;
12968;SDS011;6549;53.128;8.182;2022-12-18T00:31:13;100.68;;;28.23;;
12968;SDS011;6549;53.128;8.182;2022-12-18T00:34:16;83.80;;;27.23;;
12968;SDS011;6549;53.128;8.182;2022-12-18T00:37:16;96.15;;;28.63;;
12968;SDS011;6549;53.128;8.182;2022-12-18T00:40:16;92.50;;;28.45;;
12968;SDS011;6549;53.128;8.182;2022-12-18T00:43:17;90.03;;;27.50;;
12968;SDS011;6549;53.128;8.182;2022-12-18T00:46:17;89.03;;;26.92;;
12968;SDS011;6549;53.128;8.182;2022-12-18T00:49:18;97.07;;;27.58;;
12968;SDS011;6549;53.128;8.182;2022-12-18T00:52:19;85.60;;;26.63;;
12968;SDS011;6549;53.128;8.182;2022-12-18T00:55:19;104.75;;;32.60;;
12968;SDS011;6549;53.128;8.182;2022-12-18T00:58:20;89.45;;;28.38;;
12968;SDS011;6549;53.128;8.182;2022-12-18T01:01:20;87.47;;;27.55;;
12968;SDS011;6549;53.128;8.182;2022-12-18T01:04:21;78.05;;;25.23;;
12968;SDS011;6549;53.128;8.182;2022-12-18T01:07:21;76.63;;;25.58;;
12968;SDS011;6549;53.128;8.182;2022-12-18T01:10:22;74.15;;;25.83;;
12968;SDS011;6549;53.128;8.182;2022-12-18T01:13:22;68.00;;;23.42;;
12968;SDS011;6549;53.128;8.182;2022-12-18T01:16:23;67.80;;;23.63;;
12968;SDS011;6549;53.128;8.182;2022-12-18T01:19:23;70.97;;;23.80;;
12968;SDS011;6549;53.128;8.182;2022-12-18T01:22:23;62.63;;;21.85;;
12968;SDS011;6549;53.128;8.182;2022-12-18T01:25:24;59.95;;;21.75;;
12968;SDS011;6549;53.128;8.182;2022-12-18T01:28:25;67.25;;;24.30;;
12968;SDS011;6549;53.128;8.182;2022-12-18T01:31:26;63.15;;;21.90;;
12968;SDS011;6549;53.128;8.182;2022-12-18T01:34:28;61.47;;;22.75;;
12968;SDS011;6549;53.128;8.182;2022-12-18T01:37:28;59.47;;;23.35;;
12968;SDS011;6549;53.128;8.182;2022-12-18T01:40:29;59.47;;;22.17;;
12968;SDS011;6549;53.128;8.182;2022-12-18T01:43:49;59.95;;;21.75;;
12968;SDS011;6549;53.128;8.182;2022-12-18T01:46:55;47.40;;;19.38;;
12968;SDS011;6549;53.128;8.182;2022-12-18T01:49:55;55.70;;;19.67;;
12968;SDS011;6549;53.128;8.182;2022-12-18T01:52:59;51.20;;;20.75;;
12968;SDS011;6549;53.128;8.182;2022-12-18T01:56:03;50.72;;;18.42;;
12968;SDS011;6549;53.128;8.182;2022-12-18T01:59:04;49.83;;;19.25;;
12968;SDS011;6549;53.128;8.182;2022-12-18T02:02:09;49.70;;;19.33;;
12968;SDS011;6549;53.128;8.182;2022-12-18T02:05:11;45.65;;;18.30;;
12968;SDS011;6549;53.128;8.182;2022-12-18T02:08:17;48.25;;;18.10;;
12968;SDS011;6549;53.128;8.182;2022-12-18T02:11:34;41.83;;;17.48;;
12968;SDS011;6549;53.128;8.182;2022-12-18T02:18:38;50.50;;;18.02;;
12968;SDS011;6549;53.128;8.182;2022-12-18T02:21:54;45.30;;;18.83;;
12968;SDS011;6549;53.128;8.182;2022-12-18T02:25:19;46.17;;;18.55;;
12968;SDS011;6549;53.128;8.182;2022-12-18T02:28:22;47.17;;;18.52;;
12968;SDS011;6549;53.128;8.182;2022-12-18T02:31:30;46.90;;;17.92;;
12968;SDS011;6549;53.128;8.182;2022-12-18T02:34:36;46.60;;;18.27;;
12968;SDS011;6549;53.128;8.182;2022-12-18T02:37:39;42.50;;;18.13;;
12968;SDS011;6549;53.128;8.182;2022-12-18T02:40:43;43.22;;;17.98;;
12968;SDS011;6549;53.128;8.182;2022-12-18T02:43:55;43.03;;;16.65;;
12968;SDS011;6549;53.128;8.182;2022-12-18T02:46:57;45.13;;;17.27;;
12968;SDS011;6549;53.128;8.182;2022-12-18T02:53:18;43.75;;;18.10;;
12968;SDS011;6549;53.128;8.182;2022-12-18T02:56:33;45.20;;;17.52;;
12968;SDS011;6549;53.128;8.182;2022-12-18T02:59:45;49.92;;;18.73;;
12968;SDS011;6549;53.128;8.182;2022-12-18T03:06:49;42.90;;;18.58;;
12968;SDS011;6549;53.128;8.182;2022-12-18T03:09:47;47.72;;;19.83;;
12968;SDS011;6549;53.128;8.182;2022-12-18T03:12:54;48.00;;;19.27;;
12968;SDS011;6549;53.128;8.182;2022-12-18T03:16:01;38.75;;;18.30;;
12968;SDS011;6549;53.128;8.182;2022-12-18T03:19:09;45.65;;;18.50;;
12968;SDS011;6549;53.128;8.182;2022-12-18T03:22:15;46.20;;;20.05;;
12968;SDS011;6549;53.128;8.182;2022-12-18T03:25:16;39.83;;;18.15;;
12968;SDS011;6549;53.128;8.182;2022-12-18T03:28:19;41.00;;;19.27;;
12968;SDS011;6549;53.128;8.182;2022-12-18T03:31:22;43.80;;;19.88;;
12968;SDS011;6549;53.128;8.182;2022-12-18T03:34:25;42.05;;;18.23;;
12968;SDS011;6549;53.128;8.182;2022-12-18T03:37:31;43.55;;;17.98;;
12968;SDS011;6549;53.128;8.182;2022-12-18T03:40:35;41.05;;;18.02;;
12968;SDS011;6549;53.128;8.182;2022-12-18T03:44:06;42.45;;;17.40;;
12968;SDS011;6549;53.128;8.182;2022-12-18T03:47:15;36.33;;;16.58;;
12968;SDS011;6549;53.128;8.182;2022-12-18T03:50:31;39.97;;;17.40;;
12968;SDS011;6549;53.128;8.182;2022-12-18T03:53:48;37.38;;;17.17;;
12968;SDS011;6549;53.128;8.182;2022-12-18T03:56:54;39.53;;;17.67;;
12968;SDS011;6549;53.128;8.182;2022-12-18T04:00:00;41.20;;;19.02;;
12968;SDS011;6549;53.128;8.182;2022-12-18T04:03:05;39.35;;;17.33;;
12968;SDS011;6549;53.128;8.182;2022-12-18T04:06:07;41.55;;;19.20;;
12968;SDS011;6549;53.128;8.182;2022-12-18T04:09:09;38.13;;;18.52;;
12968;SDS011;6549;53.128;8.182;2022-12-18T04:12:09;37.88;;;18.20;;
12968;SDS011;6549;53.128;8.182;2022-12-18T04:15:10;38.70;;;17.08;;
12968;SDS011;6549;53.128;8.182;2022-12-18T04:18:11;37.67;;;18.30;;
12968;SDS011;6549;53.128;8.182;2022-12-18T04:21:12;39.70;;;17.88;;
12968;SDS011;6549;53.128;8.182;2022-12-18T04:24:12;44.13;;;19.42;;
12968;SDS011;6549;53.128;8.182;2022-12-18T04:27:12;39.90;;;19.75;;
12968;SDS011;6549;53.128;8.182;2022-12-18T04:30:13;39.53;;;18.17;;
12968;SDS011;6549;53.128;8.182;2022-12-18T04:33:16;39.63;;;18.67;;
12968;SDS011;6549;53.128;8.182;2022-12-18T04:36:16;37.30;;;19.05;;
12968;SDS011;6549;53.128;8.182;2022-12-18T04:39:17;38.95;;;19.58;;
12968;SDS011;6549;53.128;8.182;2022-12-18T04:42:17;39.85;;;19.13;;
12968;SDS011;6549;53.128;8.182;2022-12-18T04:45:17;41.30;;;19.88;;
12968;SDS011;6549;53.128;8.182;2022-12-18T04:48:18;38.40;;;18.90;;
12968;SDS011;6549;53.128;8.182;2022-12-18T04:51:20;46.45;;;19.98;;
12968;SDS011;6549;53.128;8.182;2022-12-18T04:54:20;36.17;;;19.23;;
12968;SDS011;6549;53.128;8.182;2022-12-18T04:57:20;37.15;;;18.63;;
12968;SDS011;6549;53.128;8.182;2022-12-18T05:00:21;37.35;;;19.63;;
12968;SDS011;6549;53.128;8.182;2022-12-18T05:03:21;35.90;;;18.70;;
12968;SDS011;6549;53.128;8.182;2022-12-18T05:06:22;40.90;;;20.38;;
12968;SDS011;6549;53.128;8.182;2022-12-18T05:09:22;41.03;;;21.65;;
12968;SDS011;6549;53.128;8.182;2022-12-18T05:12:23;35.15;;;18.60;;
12968;SDS011;6549;53.128;8.182;2022-12-18T05:15:27;35.90;;;18.08;;
12968;SDS011;6549;53.128;8.182;2022-12-18T05:18:31;36.25;;;18.45;;
12968;SDS011;6549;53.128;8.182;2022-12-18T05:21:31;36.20;;;17.40;;
12968;SDS011;6549;53.128;8.182;2022-12-18T05:24:32;32.95;;;17.05;;
12968;SDS011;6549;53.128;8.182;2022-12-18T05:27:32;33.95;;;16.75;;
12968;SDS011;6549;53.128;8.182;2022-12-18T05:30:32;32.17;;;16.85;;
12968;SDS011;6549;53.128;8.182;2022-12-18T05:33:33;36.95;;;18.52;;
12968;SDS011;6549;53.128;8.182;2022-12-18T05:36:34;34.78;;;17.05;;
12968;SDS011;6549;53.128;8.182;2022-12-18T05:39:35;36.28;;;18.27;;
12968;SDS011;6549;53.128;8.182;2022-12-18T05:42:35;35.35;;;17.45;;
12968;SDS011;6549;53.128;8.182;2022-12-18T05:45:38;32.50;;;15.35;;
12968;SDS011;6549;53.128;8.182;2022-12-18T05:48:39;31.52;;;15.25;;
12968;SDS011;6549;53.128;8.182;2022-12-18T05:51:40;34.67;;;17.73;;
12968;SDS011;6549;53.128;8.182;2022-12-18T05:54:40;31.88;;;16.38;;
12968;SDS011;6549;53.128;8.182;2022-12-18T05:57:41;33.35;;;16.77;;
12968;SDS011;6549;53.128;8.182;2022-12-18T06:00:43;33.15;;;16.13;;
12968;SDS011;6549;53.128;8.182;2022-12-18T06:03:45;29.08;;;14.98;;
12968;SDS011;6549;53.128;8.182;2022-12-18T06:06:45;31.52;;;16.02;;
12968;SDS011;6549;53.128;8.182;2022-12-18T06:09:46;32.28;;;16.33;;
12968;SDS011;6549;53.128;8.182;2022-12-18T06:12:46;28.73;;;16.33;;
12968;SDS011;6549;53.128;8.182;2022-12-18T06:15:46;29.55;;;15.85;;
12968;SDS011;6549;53.128;8.182;2022-12-18T06:18:47;27.73;;;14.80;;
12968;SDS011;6549;53.128;8.182;2022-12-18T06:21:47;31.10;;;15.98;;
12968;SDS011;6549;53.128;8.182;2022-12-18T06:24:49;29.83;;;15.38;;
12968;SDS011;6549;53.128;8.182;2022-12-18T06:27:49;27.30;;;14.90;;
12968;SDS011;6549;53.128;8.182;2022-12-18T06:30:50;25.98;;;14.55;;
12968;SDS011;6549;53.128;8.182;2022-12-18T06:33:50;27.27;;;15.35;;
12968;SDS011;6549;53.128;8.182;2022-12-18T06:36:50;29.63;;;15.35;;
12968;SDS011;6549;53.128;8.182;2022-12-18T06:39:51;27.77;;;14.25;;
12968;SDS011;6549;53.128;8.182;2022-12-18T06:42:52;28.85;;;15.48;;
12968;SDS011;6549;53.128;8.182;2022-12-18T06:45:58;26.60;;;14.48;;
12968;SDS011;6549;53.128;8.182;2022-12-18T06:49:02;28.55;;;15.43;;
12968;SDS011;6549;53.128;8.182;2022-12-18T06:52:02;28.17;;;14.18;;
12968;SDS011;6549;53.128;8.182;2022-12-18T06:55:03;26.58;;;14.50;;
12968;SDS011;6549;53.128;8.182;2022-12-18T06:58:03;25.85;;;14.15;;
12968;SDS011;6549;53.128;8.182;2022-12-18T07:01:04;29.02;;;14.45;;
12968;SDS011;6549;53.128;8.182;2022-12-18T07:04:07;30.15;;;14.85;;
12968;SDS011;6549;53.128;8.182;2022-12-18T07:07:07;26.48;;;14.73;;
12968;SDS011;6549;53.128;8.182;2022-12-18T07:10:08;25.67;;;13.82;;
12968;SDS011;6549;53.128;8.182;2022-12-18T07:13:08;26.23;;;13.95;;
12968;SDS011;6549;53.128;8.182;2022-12-18T07:16:10;26.60;;;13.30;;
12968;SDS011;6549;53.128;8.182;2022-12-18T07:19:17;24.67;;;13.68;;
12968;SDS011;6549;53.128;8.182;2022-12-18T07:22:18;27.33;;;15.00;;
12968;SDS011;6549;53.128;8.182;2022-12-18T07:25:18;25.65;;;14.40;;
12968;SDS011;6549;53.128;8.182;2022-12-18T07:28:18;30.08;;;14.30;;
12968;SDS011;6549;53.128;8.182;2022-12-18T07:31:19;26.45;;;13.65;;
12968;SDS011;6549;53.128;8.182;2022-12-18T07:34:21;22.02;;;12.93;;
12968;SDS011;6549;53.128;8.182;2022-12-18T07:37:21;27.02;;;12.95;;
12968;SDS011;6549;53.128;8.182;2022-12-18T07:40:22;26.38;;;13.75;;
12968;SDS011;6549;53.128;8.182;2022-12-18T07:43:22;24.45;;;12.93;;
12968;SDS011;6549;53.128;8.182;2022-12-18T07:46:22;24.10;;;13.63;;
12968;SDS011;6549;53.128;8.182;2022-12-18T07:49:23;26.42;;;13.57;;
12968;SDS011;6549;53.128;8.182;2022-12-18T07:52:23;24.30;;;12.55;;
12968;SDS011;6549;53.128;8.182;2022-12-18T07:55:24;26.25;;;13.27;;
12968;SDS011;6549;53.128;8.182;2022-12-18T07:58:24;22.98;;;12.05;;
12968;SDS011;6549;53.128;8.182;2022-12-18T08:01:25;21.48;;;12.23;;
12968;SDS011;6549;53.128;8.182;2022-12-18T08:04:25;26.20;;;13.77;;
12968;SDS011;6549;53.128;8.182;2022-12-18T08:07:26;23.42;;;13.50;;
12968;SDS011;6549;53.128;8.182;2022-12-18T08:10:26;28.23;;;15.98;;
12968;SDS011;6549;53.128;8.182;2022-12-18T08:13:26;23.40;;;13.45;;
12968;SDS011;6549;53.128;8.182;2022-12-18T08:16:27;24.05;;;12.38;;
12968;SDS011;6549;53.128;8.182;2022-12-18T08:19:28;24.20;;;14.20;;
12968;SDS011;6549;53.128;8.182;2022-12-18T08:22:28;21.77;;;12.80;;
12968;SDS011;6549;53.128;8.182;2022-12-18T08:25:28;24.38;;;12.50;;
12968;SDS011;6549;53.128;8.182;2022-12-18T08:28:28;20.48;;;12.00;;
12968;SDS011;6549;53.128;8.182;2022-12-18T08:31:29;19.55;;;11.52;;
12968;SDS011;6549;53.128;8.182;2022-12-18T08:34:31;19.88;;;11.40;;
12968;SDS011;6549;53.128;8.182;2022-12-18T08:37:31;23.17;;;12.88;;
12968;SDS011;6549;53.128;8.182;2022-12-18T08:40:31;22.33;;;12.57;;
12968;SDS011;6549;53.128;8.182;2022-12-18T08:43:32;23.48;;;13.18;;
12968;SDS011;6549;53.128;8.182;2022-12-18T08:46:51;24.02;;;12.70;;
12968;SDS011;6549;53.128;8.182;2022-12-18T08:49:51;25.10;;;13.63;;
12968;SDS011;6549;53.128;8.182;2022-12-18T08:52:51;25.13;;;13.05;;
12968;SDS011;6549;53.128;8.182;2022-12-18T08:55:52;27.33;;;14.68;;
12968;SDS011;6549;53.128;8.182;2022-12-18T08:58:53;26.02;;;12.50;;
12968;SDS011;6549;53.128;8.182;2022-12-18T09:01:54;22.00;;;11.87;;
12968;SDS011;6549;53.128;8.182;2022-12-18T09:04:55;25.25;;;13.25;;
12968;SDS011;6549;53.128;8.182;2022-12-18T09:07:55;24.92;;;12.90;;
12968;SDS011;6549;53.128;8.182;2022-12-18T09:10:56;24.92;;;13.23;;
12968;SDS011;6549;53.128;8.182;2022-12-18T09:13:56;22.90;;;13.00;;
12968;SDS011;6549;53.128;8.182;2022-12-18T09:16:58;25.33;;;13.23;;
12968;SDS011;6549;53.128;8.182;2022-12-18T09:19:58;22.02;;;12.40;;
12968;SDS011;6549;53.128;8.182;2022-12-18T09:22:58;22.60;;;12.40;;
12968;SDS011;6549;53.128;8.182;2022-12-18T09:25:59;22.15;;;11.30;;
12968;SDS011;6549;53.128;8.182;2022-12-18T09:28:59;17.63;;;10.05;;
12968;SDS011;6549;53.128;8.182;2022-12-18T09:32:00;19.60;;;10.75;;
12968;SDS011;6549;53.128;8.182;2022-12-18T09:35:00;20.00;;;10.73;;
12968;SDS011;6549;53.128;8.182;2022-12-18T09:38:01;21.42;;;11.48;;
12968;SDS011;6549;53.128;8.182;2022-12-18T09:41:05;18.95;;;10.82;;
12968;SDS011;6549;53.128;8.182;2022-12-18T09:47:30;18.25;;;11.10;;
12968;SDS011;6549;53.128;8.182;2022-12-18T09:50:37;21.08;;;11.35;;
12968;SDS011;6549;53.128;8.182;2022-12-18T09:53:40;20.92;;;12.27;;
12968;SDS011;6549;53.128;8.182;2022-12-18T09:56:44;20.08;;;11.95;;
12968;SDS011;6549;53.128;8.182;2022-12-18T09:59:46;19.75;;;10.98;;
12968;SDS011;6549;53.128;8.182;2022-12-18T10:02:52;19.17;;;10.60;;
12968;SDS011;6549;53.128;8.182;2022-12-18T10:06:02;22.35;;;11.98;;
12968;SDS011;6549;53.128;8.182;2022-12-18T10:09:42;18.77;;;10.40;;
12968;SDS011;6549;53.128;8.182;2022-12-18T10:12:55;17.48;;;10.02;;
12968;SDS011;6549;53.128;8.182;2022-12-18T10:16:09;19.55;;;10.50;;
12968;SDS011;6549;53.128;8.182;2022-12-18T10:26:00;18.65;;;10.63;;
12968;SDS011;6549;53.128;8.182;2022-12-18T10:29:13;17.65;;;9.95;;
12968;SDS011;6549;53.128;8.182;2022-12-18T10:32:19;17.38;;;9.07;;
12968;SDS011;6549;53.128;8.182;2022-12-18T10:35:30;20.35;;;10.27;;
12968;SDS011;6549;53.128;8.182;2022-12-18T10:38:31;19.33;;;10.40;;
12968;SDS011;6549;53.128;8.182;2022-12-18T10:41:32;17.13;;;10.05;;
12968;SDS011;6549;53.128;8.182;2022-12-18T10:44:32;18.05;;;10.13;;
12968;SDS011;6549;53.128;8.182;2022-12-18T10:47:33;20.75;;;10.18;;
12968;SDS011;6549;53.128;8.182;2022-12-18T10:50:35;16.70;;;9.98;;
12968;SDS011;6549;53.128;8.182;2022-12-18T10:53:37;18.15;;;10.73;;
12968;SDS011;6549;53.128;8.182;2022-12-18T10:56:39;19.08;;;10.27;;
12968;SDS011;6549;53.128;8.182;2022-12-18T10:59:51;21.42;;;10.98;;
12968;SDS011;6549;53.128;8.182;2022-12-18T11:02:55;18.73;;;11.18;;
12968;SDS011;6549;53.128;8.182;2022-12-18T11:06:07;17.95;;;10.07;;
12968;SDS011;6549;53.128;8.182;2022-12-18T11:09:24;18.35;;;10.35;;
12968;SDS011;6549;53.128;8.182;2022-12-18T11:12:43;19.38;;;10.45;;
12968;SDS011;6549;53.128;8.182;2022-12-18T11:15:43;19.02;;;9.98;;
12968;SDS011;6549;53.128;8.182;2022-12-18T11:18:44;21.73;;;10.63;;
12968;SDS011;6549;53.128;8.182;2022-12-18T11:21:44;16.55;;;10.30;;
12968;SDS011;6549;53.128;8.182;2022-12-18T11:24:51;17.77;;;10.70;;
12968;SDS011;6549;53.128;8.182;2022-12-18T11:27:56;18.65;;;10.25;;
12968;SDS011;6549;53.128;8.182;2022-12-18T11:31:15;17.45;;;9.68;;
12968;SDS011;6549;53.128;8.182;2022-12-18T11:34:23;19.77;;;10.65;;
12968;SDS011;6549;53.128;8.182;2022-12-18T11:37:28;17.70;;;9.73;;
12968;SDS011;6549;53.128;8.182;2022-12-18T11:40:36;18.13;;;10.15;;
12968;SDS011;6549;53.128;8.182;2022-12-18T11:43:38;16.88;;;10.00;;
12968;SDS011;6549;53.128;8.182;2022-12-18T11:46:49;15.63;;;9.73;;
12968;SDS011;6549;53.128;8.182;2022-12-18T11:49:55;17.75;;;9.88;;
12968;SDS011;6549;53.128;8.182;2022-12-18T11:56:08;14.80;;;9.00;;
12968;SDS011;6549;53.128;8.182;2022-12-18T12:06:29;16.77;;;9.85;;
12968;SDS011;6549;53.128;8.182;2022-12-18T12:10:14;12.83;;;7.90;;
12968;SDS011;6549;53.128;8.182;2022-12-18T12:13:39;17.90;;;9.27;;
12968;SDS011;6549;53.128;8.182;2022-12-18T12:30:07;13.80;;;8.43;;
12968;SDS011;6549;53.128;8.182;2022-12-18T12:33:34;15.90;;;9.18;;
12968;SDS011;6549;53.128;8.182;2022-12-18T12:36:41;14.68;;;8.75;;
12968;SDS011;6549;53.128;8.182;2022-12-18T12:39:53;14.35;;;8.82;;
12968;SDS011;6549;53.128;8.182;2022-12-18T12:42:55;17.92;;;9.55;;
12968;SDS011;6549;53.128;8.182;2022-12-18T12:46:15;15.68;;;10.05;;
12968;SDS011;6549;53.128;8.182;2022-12-18T12:49:22;14.80;;;8.68;;
12968;SDS011;6549;53.128;8.182;2022-12-18T12:52:32;17.88;;;9.70;;
12968;SDS011;6549;53.128;8.182;2022-12-18T12:55:38;22.23;;;10.57;;
12968;SDS011;6549;53.128;8.182;2022-12-18T12:58:45;16.63;;;9.77;;
12968;SDS011;6549;53.128;8.182;2022-12-18T13:08:22;17.83;;;9.60;;
12968;SDS011;6549;53.128;8.182;2022-12-18T13:11:43;16.98;;;9.23;;
12968;SDS011;6549;53.128;8.182;2022-12-18T13:15:22;15.25;;;8.50;;
12968;SDS011;6549;53.128;8.182;2022-12-18T13:18:30;15.55;;;9.02;;
12968;SDS011;6549;53.128;8.182;2022-12-18T13:21:32;15.18;;;9.70;;
12968;SDS011;6549;53.128;8.182;2022-12-18T13:30:46;15.85;;;8.93;;
12968;SDS011;6549;53.128;8.182;2022-12-18T13:33:50;17.00;;;9.57;;
12968;SDS011;6549;53.128;8.182;2022-12-18T13:36:51;16.40;;;9.27;;
12968;SDS011;6549;53.128;8.182;2022-12-18T13:39:52;16.35;;;9.55;;
12968;SDS011;6549;53.128;8.182;2022-12-18T13:42:53;15.95;;;8.63;;
12968;SDS011;6549;53.128;8.182;2022-12-18T13:46:25;16.60;;;8.73;;
12968;SDS011;6549;53.128;8.182;2022-12-18T13:52:35;15.73;;;9.25;;
12968;SDS011;6549;53.128;8.182;2022-12-18T13:55:42;15.38;;;8.52;;
12968;SDS011;6549;53.128;8.182;2022-12-18T13:59:02;15.63;;;8.35;;
12968;SDS011;6549;53.128;8.182;2022-12-18T14:02:15;16.73;;;8.07;;
12968;SDS011;6549;53.128;8.182;2022-12-18T14:05:30;15.48;;;8.52;;
12968;SDS011;6549;53.128;8.182;2022-12-18T14:08:40;16.27;;;8.88;;
12968;SDS011;6549;53.128;8.182;2022-12-18T14:11:45;14.53;;;7.93;;
12968;SDS011;6549;53.128;8.182;2022-12-18T14:14:48;14.07;;;8.18;;
12968;SDS011;6549;53.128;8.182;2022-12-18T14:17:51;13.63;;;7.65;;
12968;SDS011;6549;53.128;8.182;2022-12-18T14:21:00;13.27;;;8.45;;
12968;SDS011;6549;53.128;8.182;2022-12-18T14:24:03;16.48;;;8.25;;
12968;SDS011;6549;53.128;8.182;2022-12-18T14:27:12;14.80;;;7.80;;
12968;SDS011;6549;53.128;8.182;2022-12-18T14:30:24;12.20;;;7.75;;
12968;SDS011;6549;53.128;8.182;2022-12-18T14:33:26;14.57;;;7.97;;
12968;SDS011;6549;53.128;8.182;2022-12-18T14:36:27;15.80;;;8.98;;
12968;SDS011;6549;53.128;8.182;2022-12-18T14:39:28;15.25;;;8.15;;
12968;SDS011;6549;53.128;8.182;2022-12-18T14:42:29;15.48;;;8.95;;
12968;SDS011;6549;53.128;8.182;2022-12-18T14:45:36;14.52;;;8.48;;
12968;SDS011;6549;53.128;8.182;2022-12-18T14:48:39;15.57;;;8.50;;
12968;SDS011;6549;53.128;8.182;2022-12-18T14:51:41;15.65;;;8.85;;
12968;SDS011;6549;53.128;8.182;2022-12-18T14:54:48;14.88;;;8.75;;
12968;SDS011;6549;53.128;8.182;2022-12-18T14:57:52;13.07;;;8.40;;
12968;SDS011;6549;53.128;8.182;2022-12-18T15:00:54;15.77;;;9.18;;
12968;SDS011;6549;53.128;8.182;2022-12-18T15:03:55;18.48;;;8.88;;
12968;SDS011;6549;53.128;8.182;2022-12-18T15:10:20;15.30;;;8.70;;
12968;SDS011;6549;53.128;8.182;2022-12-18T15:13:22;17.83;;;9.02;;
12968;SDS011;6549;53.128;8.182;2022-12-18T15:16:24;21.73;;;11.23;;
12968;SDS011;6549;53.128;8.182;2022-12-18T15:19:32;17.05;;;9.77;;
12968;SDS011;6549;53.128;8.182;2022-12-18T15:22:35;16.38;;;9.45;;
12968;SDS011;6549;53.128;8.182;2022-12-18T15:25:36;16.58;;;9.82;;
12968;SDS011;6549;53.128;8.182;2022-12-18T15:28:58;15.82;;;8.88;;
12968;SDS011;6549;53.128;8.182;2022-12-18T15:32:01;16.57;;;9.00;;
12968;SDS011;6549;53.128;8.182;2022-12-18T15:38:09;16.35;;;8.88;;
12968;SDS011;6549;53.128;8.182;2022-12-18T15:41:13;15.00;;;8.48;;
12968;SDS011;6549;53.128;8.182;2022-12-18T15:44:23;15.90;;;8.07;;
12968;SDS011;6549;53.128;8.182;2022-12-18T15:47:25;14.40;;;7.15;;
12968;SDS011;6549;53.128;8.182;2022-12-18T15:50:25;13.88;;;7.57;;
12968;SDS011;6549;53.128;8.182;2022-12-18T15:53:28;16.77;;;8.35;;
12968;SDS011;6549;53.128;8.182;2022-12-18T15:56:32;11.85;;;7.15;;
12968;SDS011;6549;53.128;8.182;2022-12-18T15:59:51;12.95;;;7.43;;
12968;SDS011;6549;53.128;8.182;2022-12-18T16:02:53;14.10;;;6.93;;
12968;SDS011;6549;53.128;8.182;2022-12-18T16:05:53;11.50;;;7.13;;
12968;SDS011;6549;53.128;8.182;2022-12-18T16:08:53;13.02;;;7.43;;
12968;SDS011;6549;53.128;8.182;2022-12-18T16:11:54;10.80;;;6.28;;
12968;SDS011;6549;53.128;8.182;2022-12-18T16:14:54;12.30;;;6.93;;
12968;SDS011;6549;53.128;8.182;2022-12-18T16:17:54;11.25;;;6.47;;
12968;SDS011;6549;53.128;8.182;2022-12-18T16:20:55;12.60;;;7.07;;
12968;SDS011;6549;53.128;8.182;2022-12-18T16:23:55;12.48;;;7.15;;
12968;SDS011;6549;53.128;8.182;2022-12-18T16:26:56;13.95;;;7.20;;
12968;SDS011;6549;53.128;8.182;2022-12-18T16:29:59;10.77;;;6.78;;
12968;SDS011;6549;53.128;8.182;2022-12-18T16:32:59;11.40;;;6.57;;
12968;SDS011;6549;53.128;8.182;2022-12-18T16:35:59;10.60;;;6.53;;
12968;SDS011;6549;53.128;8.182;2022-12-18T16:39:00;11.75;;;6.72;;
12968;SDS011;6549;53.128;8.182;2022-12-18T16:42:01;10.40;;;6.75;;
12968;SDS011;6549;53.128;8.182;2022-12-18T16:45:06;11.23;;;6.72;;
12968;SDS011;6549;53.128;8.182;2022-12-18T16:48:09;10.07;;;5.90;;
12968;SDS011;6549;53.128;8.182;2022-12-18T16:51:09;12.50;;;5.65;;
12968;SDS011;6549;53.128;8.182;2022-12-18T16:54:09;11.60;;;6.85;;
12968;SDS011;6549;53.128;8.182;2022-12-18T16:57:11;11.50;;;6.78;;
12968;SDS011;6549;53.128;8.182;2022-12-18T17:00:13;10.50;;;6.22;;
12968;SDS011;6549;53.128;8.182;2022-12-18T17:03:13;12.30;;;7.07;;
12968;SDS011;6549;53.128;8.182;2022-12-18T17:06:14;11.27;;;7.05;;
12968;SDS011;6549;53.128;8.182;2022-12-18T17:09:14;13.20;;;7.68;;
12968;SDS011;6549;53.128;8.182;2022-12-18T17:12:19;11.02;;;6.80;;
12968;SDS011;6549;53.128;8.182;2022-12-18T17:15:19;11.13;;;6.40;;
12968;SDS011;6549;53.128;8.182;2022-12-18T17:18:19;11.90;;;7.15;;
12968;SDS011;6549;53.128;8.182;2022-12-18T17:21:20;14.02;;;6.90;;
12968;SDS011;6549;53.128;8.182;2022-12-18T17:24:21;10.55;;;6.45;;
12968;SDS011;6549;53.128;8.182;2022-12-18T17:27:21;12.07;;;6.20;;
12968;SDS011;6549;53.128;8.182;2022-12-18T17:30:22;12.63;;;7.50;;
12968;SDS011;6549;53.128;8.182;2022-12-18T17:33:22;11.60;;;6.80;;
12968;SDS011;6549;53.128;8.182;2022-12-18T17:36:24;12.43;;;6.78;;
12968;SDS011;6549;53.128;8.182;2022-12-18T17:39:27;11.32;;;6.30;;
12968;SDS011;6549;53.128;8.182;2022-12-18T17:42:29;9.70;;;6.10;;
12968;SDS011;6549;53.128;8.182;2022-12-18T17:45:29;10.98;;;6.07;;
12968;SDS011;6549;53.128;8.182;2022-12-18T17:48:30;11.77;;;6.40;;
12968;SDS011;6549;53.128;8.182;2022-12-18T17:51:31;12.27;;;7.10;;
12968;SDS011;6549;53.128;8.182;2022-12-18T17:54:31;14.10;;;6.85;;
12968;SDS011;6549;53.128;8.182;2022-12-18T17:57:32;10.27;;;5.75;;
12968;SDS011;6549;53.128;8.182;2022-12-18T18:00:32;12.30;;;6.20;;
12968;SDS011;6549;53.128;8.182;2022-12-18T18:03:32;10.02;;;5.43;;
12968;SDS011;6549;53.128;8.182;2022-12-18T18:06:36;12.13;;;6.15;;
12968;SDS011;6549;53.128;8.182;2022-12-18T18:09:36;10.50;;;5.40;;
12968;SDS011;6549;53.128;8.182;2022-12-18T18:12:37;11.93;;;6.00;;
12968;SDS011;6549;53.128;8.182;2022-12-18T18:15:56;9.98;;;6.00;;
12968;SDS011;6549;53.128;8.182;2022-12-18T18:18:57;9.68;;;5.93;;
12968;SDS011;6549;53.128;8.182;2022-12-18T18:21:58;12.07;;;6.18;;
12968;SDS011;6549;53.128;8.182;2022-12-18T18:25:00;10.98;;;6.00;;
12968;SDS011;6549;53.128;8.182;2022-12-18T18:28:02;11.75;;;5.80;;
12968;SDS011;6549;53.128;8.182;2022-12-18T18:31:03;9.98;;;6.35;;
12968;SDS011;6549;53.128;8.182;2022-12-18T18:34:04;9.55;;;6.10;;
12968;SDS011;6549;53.128;8.182;2022-12-18T18:37:04;9.77;;;5.47;;
12968;SDS011;6549;53.128;8.182;2022-12-18T18:40:05;10.00;;;5.93;;
12968;SDS011;6549;53.128;8.182;2022-12-18T18:43:05;11.55;;;6.20;;
12968;SDS011;6549;53.128;8.182;2022-12-18T18:46:06;9.85;;;5.90;;
12968;SDS011;6549;53.128;8.182;2022-12-18T18:49:06;11.35;;;5.80;;
12968;SDS011;6549;53.128;8.182;2022-12-18T18:52:06;11.25;;;5.93;;
12968;SDS011;6549;53.128;8.182;2022-12-18T18:55:08;10.93;;;5.65;;
12968;SDS011;6549;53.128;8.182;2022-12-18T18:58:08;11.90;;;6.80;;
12968;SDS011;6549;53.128;8.182;2022-12-18T19:01:10;10.93;;;6.22;;
12968;SDS011;6549;53.128;8.182;2022-12-18T19:04:12;9.43;;;5.38;;
12968;SDS011;6549;53.128;8.182;2022-12-18T19:07:16;11.50;;;6.60;;
12968;SDS011;6549;53.128;8.182;2022-12-18T19:10:16;12.13;;;6.22;;
12968;SDS011;6549;53.128;8.182;2022-12-18T19:13:17;11.63;;;6.43;;
12968;SDS011;6549;53.128;8.182;2022-12-18T19:16:20;12.73;;;7.15;;
12968;SDS011;6549;53.128;8.182;2022-12-18T19:19:20;10.73;;;6.10;;
12968;SDS011;6549;53.128;8.182;2022-12-18T19:22:20;12.43;;;7.07;;
12968;SDS011;6549;53.128;8.182;2022-12-18T19:25:23;11.77;;;6.35;;